Time;durP1;ratioP1;P1;durP2;ratioP2;P2;SDS_P1;SDS_P2;PMS_P1;PMS_P2;Temp;Humidity;BMP_temperature;BMP_pressure;BME280_temperature;BME280_humidity;BME280_pressure;Samples;Min_cycle;Max_cycle;Signal;HPM_P1;HPM_P2
2022/01/27 00:05:54;;;;;;;10.37;5.63;;;;;;;12.77;39.54;101408.44;4922092;29;20530;-75
2022/01/27 00:08:36;;;;;;;8.80;4.10;;;;;;;12.82;39.51;101419.69;4936138;29;20052;-80
2022/01/27 00:11:10;;;;;;;7.00;4.10;;;;;;;12.94;39.17;101434.28;4929529;29;20083;-77
2022/01/27 00:13:58;;;;;;;8.87;4.10;;;;;;;12.82;39.53;101425.28;4924269;29;20122;-77
2022/01/27 00:16:31;;;;;;;12.70;4.57;;;;;;;12.84;39.44;101423.03;4938090;29;20051;-74
2022/01/27 00:18:58;;;;;;;6.97;4.27;;;;;;;12.88;39.57;101434.53;4927924;29;20140;-72
2022/01/27 00:21:27;;;;;;;11.23;4.37;;;;;;;12.81;39.61;101430.03;4922140;29;21018;-74
2022/01/27 00:23:54;;;;;;;5.53;3.87;;;;;;;12.57;39.65;101384.81;4921416;29;20154;-73
2022/01/27 00:26:21;;;;;;;6.13;4.30;;;;;;;12.22;39.79;101359.44;4922194;29;20143;-73
2022/01/27 00:28:49;;;;;;;7.27;4.00;;;;;;;12.83;39.56;101428.94;4921821;29;20082;-76
2022/01/27 00:31:18;;;;;;;7.70;3.67;;;;;;;12.67;39.69;101411.19;4930641;29;20145;-76
2022/01/27 00:33:46;;;;;;;7.47;3.67;;;;;;;12.67;39.53;101400.00;4920570;29;20142;-77
2022/01/27 00:36:13;;;;;;;6.23;3.37;;;;;;;12.88;39.45;101428.94;4925673;29;20051;-78
2022/01/27 00:38:40;;;;;;;4.37;3.40;;;;;;;12.67;39.32;101391.59;4920498;29;20479;-77
2022/01/27 00:41:07;;;;;;;5.90;3.33;;;;;;;12.93;39.39;101427.00;4919393;29;20526;-81
2022/01/27 00:43:34;;;;;;;6.03;3.40;;;;;;;12.98;39.08;101424.19;4921359;29;20145;-79
2022/01/27 00:46:01;;;;;;;4.53;2.83;;;;;;;12.95;39.02;101429.53;4919358;29;20134;-78
2022/01/27 00:48:28;;;;;;;8.03;3.43;;;;;;;12.98;39.18;101423.38;4922234;29;20094;-78
2022/01/27 00:50:58;;;;;;;8.63;3.97;;;;;;;13.03;38.87;101421.44;4921763;29;20142;-77
2022/01/27 00:55:53;;;;;;;14.13;7.30;;;;;;;12.96;38.86;101401.22;4921794;29;20637;-74
2022/01/27 01:00:59;;;;;;;6.23;3.70;;;;;;;12.96;38.92;101415.25;4922153;29;20044;-69
2022/01/27 01:03:32;;;;;;;3.53;2.23;;;;;;;12.78;38.98;101390.50;4922605;29;20079;-70
2022/01/27 01:17:02;;;;;;;7.77;3.63;;;;;;;12.88;38.53;101368.09;4932450;29;20563;-74
2022/01/27 01:32:46;;;;;;;6.77;3.53;;;;;;;13.25;38.17;101395.13;4923000;29;20084;-74
2022/01/27 01:35:14;;;;;;;6.37;3.03;;;;;;;13.28;37.78;101389.81;4921561;29;20086;-70
2022/01/27 01:37:42;;;;;;;8.07;3.53;;;;;;;13.28;37.96;101398.22;4923136;29;20062;-70
2022/01/27 01:40:14;;;;;;;7.17;3.90;;;;;;;13.15;38.00;101389.47;4922804;29;20150;-72
2022/01/27 01:42:43;;;;;;;6.37;3.07;;;;;;;13.09;38.22;101379.38;4932722;29;20834;-71
2022/01/27 01:45:13;;;;;;;8.07;3.27;;;;;;;13.13;38.11;101374.88;4939853;29;20079;-77
2022/01/27 01:47:40;;;;;;;8.23;3.88;;;;;;;13.19;38.12;101383.03;4940937;29;20120;-76
2022/01/27 01:50:09;;;;;;;8.80;4.00;;;;;;;13.18;38.06;101372.09;4929701;29;20593;-78
2022/01/27 01:52:38;;;;;;;6.83;3.77;;;;;;;13.12;37.99;101356.38;4920731;29;20878;-75
2022/01/27 01:55:07;;;;;;;5.60;3.10;;;;;;;13.16;37.86;101365.91;4930735;29;20056;-80
2022/01/27 01:57:34;;;;;;;6.23;3.27;;;;;;;13.24;37.84;101382.25;4928592;29;20058;-75
2022/01/27 02:00:06;;;;;;;6.40;2.97;;;;;;;13.17;37.81;101370.44;4932411;29;20507;-75
2022/01/27 02:02:32;;;;;;;6.90;2.80;;;;;;;13.17;37.70;101374.06;4930412;29;20139;-74
2022/01/27 02:04:59;;;;;;;5.23;2.90;;;;;;;13.14;37.74;101369.00;4931144;29;20056;-77
2022/01/27 02:07:45;;;;;;;8.77;3.07;;;;;;;13.18;37.92;101383.31;4930064;29;20050;-77
2022/01/27 02:17:48;;;;;;;9.40;3.20;;;;;;;13.16;37.81;101377.13;4926350;29;20139;-77
2022/01/27 02:18:49;;;;;;;6.47;3.33;;;;;;;13.02;37.66;101366.47;4928897;29;20062;-76
2022/01/27 02:21:16;;;;;;;7.47;3.10;;;;;;;13.00;37.94;101365.06;4932667;29;20086;-76
2022/01/27 02:23:43;;;;;;;5.13;2.30;;;;;;;12.97;38.00;101360.84;4930349;29;20562;-76
2022/01/27 02:26:10;;;;;;;7.13;3.10;;;;;;;12.96;37.91;101376.00;4929514;29;20518;-77
2022/01/27 02:28:36;;;;;;;9.73;2.60;;;;;;;12.65;37.98;101334.97;4927370;29;20131;-76
2022/01/27 02:31:03;;;;;;;5.93;2.93;;;;;;;12.85;37.97;101359.41;4931277;29;20185;-76
2022/01/27 02:33:32;;;;;;;7.70;3.07;;;;;;;12.66;37.96;101336.66;4925433;29;20056;-76
2022/01/27 02:35:59;;;;;;;5.63;3.20;;;;;;;12.75;38.16;101351.81;4930230;29;20056;-75
2022/01/27 02:38:26;;;;;;;4.23;2.30;;;;;;;12.74;38.07;101355.72;4929378;29;20106;-77
2022/01/27 02:40:59;;;;;;;4.97;2.17;;;;;;;12.66;37.99;101353.47;4927022;29;20103;-77
2022/01/27 02:43:26;;;;;;;3.27;2.00;;;;;;;12.68;38.12;101354.03;4930079;29;20083;-76
2022/01/27 02:45:53;;;;;;;5.13;2.57;;;;;;;12.70;37.88;101352.66;4926098;29;20586;-77
2022/01/27 02:48:20;;;;;;;4.67;2.80;;;;;;;12.54;37.85;101331.28;4933027;29;20103;-77
2022/01/27 02:50:47;;;;;;;8.50;1.97;;;;;;;12.59;38.11;101347.28;4929781;29;20086;-76
2022/01/27 02:53:14;;;;;;;4.20;2.17;;;;;;;12.66;37.76;101342.28;4933296;29;20530;-75
2022/01/27 02:55:41;;;;;;;6.70;2.47;;;;;;;12.51;37.82;101324.28;4929789;29;20130;-76
2022/01/27 02:58:10;;;;;;;3.33;1.90;;;;;;;12.67;37.97;101332.72;4931860;29;20130;-75
2022/01/27 03:00:37;;;;;;;4.93;2.10;;;;;;;12.48;37.70;101313.63;4932321;29;20054;-74
2022/01/27 03:03:04;;;;;;;5.33;1.40;;;;;;;12.68;37.44;101334.41;4964872;28;20082;-78
2022/01/27 03:05:31;;;;;;;4.53;1.70;;;;;;;12.69;37.12;101328.53;4923136;29;20055;-75
2022/01/27 03:08:00;;;;;;;3.57;2.13;;;;;;;12.57;37.41;101309.16;4931913;29;20184;-82
2022/01/27 03:10:37;;;;;;;7.67;2.60;;;;;;;12.68;37.25;101301.63;4934219;29;20586;-81
2022/01/27 03:13:05;;;;;;;5.53;2.33;;;;;;;12.94;37.05;101327.75;4929590;29;20098;-80
2022/01/27 03:15:32;;;;;;;3.60;2.17;;;;;;;12.87;37.12;101327.19;4933441;29;20566;-80
2022/01/27 03:17:59;;;;;;;2.87;1.90;;;;;;;12.84;36.98;101310.91;4938531;29;20471;-80
2022/01/27 03:20:33;;;;;;;7.20;3.77;;;;;;;12.91;36.91;101328.31;4936975;29;20062;-81
2022/01/27 03:23:00;;;;;;;4.27;2.00;;;;;;;12.81;37.05;101315.09;4940033;29;20044;-82
2022/01/27 03:25:27;;;;;;;5.07;2.07;;;;;;;12.88;37.22;101328.84;4954446;28;20138;-71
2022/01/27 03:27:54;;;;;;;4.70;2.10;;;;;;;12.82;37.05;101313.16;4931543;29;20062;-71
2022/01/27 03:30:21;;;;;;;3.80;2.10;;;;;;;12.63;37.02;101284.81;4937742;29;20134;-71
2022/01/27 03:32:48;;;;;;;10.67;2.40;;;;;;;12.78;36.98;101318.47;4936851;29;20075;-71
2022/01/27 03:35:16;;;;;;;2.80;1.60;;;;;;;12.75;37.12;101318.16;4931855;29;20131;-71
2022/01/27 03:37:43;;;;;;;4.43;2.00;;;;;;;12.33;37.12;101254.75;4930918;29;20131;-74
2022/01/27 03:40:10;;;;;;;2.77;1.53;;;;;;;12.67;36.94;101313.97;4928662;29;20082;-74
2022/01/27 03:42:44;;;;;;;4.27;2.20;;;;;;;12.45;37.05;101271.31;4934297;29;20050;-76
2022/01/27 03:45:11;;;;;;;4.37;1.80;;;;;;;12.64;37.00;101303.28;4934986;29;20126;-77
2022/01/27 03:47:38;;;;;;;2.10;1.60;;;;;;;12.63;36.81;101312.00;4936957;29;20516;-78
2022/01/27 03:50:06;;;;;;;4.47;2.00;;;;;;;12.72;36.73;101308.38;4931685;29;20087;-75
2022/01/27 03:52:33;;;;;;;4.40;2.07;;;;;;;12.74;36.74;101317.34;4943988;28;20079;-75
2022/01/27 03:55:00;;;;;;;7.77;3.73;;;;;;;12.72;36.66;101319.59;4936479;29;20138;-77
2022/01/27 03:57:26;;;;;;;3.63;1.83;;;;;;;12.70;36.68;101332.19;4926156;29;20052;-73
2022/01/27 03:59:53;;;;;;;2.43;1.67;;;;;;;12.58;36.81;101318.44;4927731;29;20130;-73
2022/01/27 04:02:20;;;;;;;2.17;1.60;;;;;;;12.44;37.02;101317.25;4935058;29;20156;-74
2022/01/27 04:04:48;;;;;;;3.33;1.80;;;;;;;12.39;36.52;101320.88;4930116;29;20083;-74
2022/01/27 04:07:15;;;;;;;2.53;0.90;;;;;;;12.39;36.85;101323.69;4936193;29;20094;-74
2022/01/27 04:09:42;;;;;;;3.50;0.83;;;;;;;12.24;37.11;101326.41;4922337;29;20059;-79
2022/01/27 04:12:09;;;;;;;1.20;0.83;;;;;;;11.99;37.16;101299.13;4926492;29;20056;-77
2022/01/27 04:14:36;;;;;;;0.80;0.70;;;;;;;12.08;37.38;101333.91;4931575;29;20052;-77
2022/01/27 04:17:04;;;;;;;0.80;0.73;;;;;;;12.12;37.16;101332.22;4934644;29;20135;-71
2022/01/27 04:19:31;;;;;;;1.33;1.00;;;;;;;12.00;37.55;101340.00;4935723;29;20130;-72
2022/01/27 04:21:57;;;;;;;1.97;1.43;;;;;;;11.81;37.69;101318.03;4931756;29;20082;-77
2022/01/27 04:24:24;;;;;;;3.50;1.77;;;;;;;11.95;37.38;101321.22;4928153;29;20312;-76
2022/01/27 04:26:59;;;;;;;5.63;1.73;;;;;;;11.88;37.54;101292.63;4925494;29;20122;-76
2022/01/27 04:29:27;;;;;;;3.00;1.90;;;;;;;12.15;37.29;101336.44;4929990;29;20165;-76
2022/01/27 04:31:54;;;;;;;5.00;2.57;;;;;;;12.21;37.23;101335.38;4935626;29;20123;-75
2022/01/27 04:34:23;;;;;;;6.73;3.10;;;;;;;12.19;37.06;101343.19;4935860;29;20426;-77
2022/01/27 04:36:50;;;;;;;6.97;3.33;;;;;;;12.16;36.95;101324.97;4922566;29;20135;-76
2022/01/27 04:39:27;;;;;;;8.57;2.63;;;;;;;12.25;37.29;101337.34;4957663;28;20554;-81
2022/01/27 04:42:07;;;;;;;6.07;2.60;;;;;;;12.26;37.09;101326.97;4938938;28;20139;-78
2022/01/27 04:45:00;;;;;;;5.07;2.47;;;;;;;12.40;36.95;101344.13;4926378;29;20052;-77
2022/01/27 04:47:36;;;;;;;4.77;3.07;;;;;;;12.42;36.99;101342.75;4929886;29;20134;-80
2022/01/27 04:50:04;;;;;;;5.10;2.70;;;;;;;12.46;36.86;101338.25;4923541;29;20130;-76
2022/01/27 04:52:34;;;;;;;4.67;2.50;;;;;;;12.45;36.76;101336.59;4922306;29;20115;-77
2022/01/27 04:55:09;;;;;;;5.03;2.77;;;;;;;12.48;36.93;101336.03;4931780;29;20047;-76
2022/01/27 04:57:39;;;;;;;3.77;2.20;;;;;;;12.42;36.97;101345.53;4934878;29;20134;-76
2022/01/27 05:00:07;;;;;;;6.68;2.30;;;;;;;12.12;37.04;101301.44;4931070;29;20586;-75
2022/01/27 05:02:54;;;;;;;3.00;2.13;;;;;;;12.23;37.00;101330.31;4928206;29;20131;-77
2022/01/27 05:05:22;;;;;;;5.40;2.63;;;;;;;12.17;37.19;101337.88;4958439;28;20135;-77
2022/01/27 05:07:56;;;;;;;7.93;2.80;;;;;;;12.09;37.09;101333.59;4932493;29;20126;-76
2022/01/27 05:10:27;;;;;;;3.23;2.37;;;;;;;12.06;37.03;101328.56;4934932;29;20052;-76
2022/01/27 05:13:14;;;;;;;4.53;1.53;;;;;;;12.04;36.82;101318.75;4932709;29;20139;-78
2022/01/27 05:15:44;;;;;;;4.30;1.87;;;;;;;12.04;37.09;101330.78;4954873;28;20163;-78
2022/01/27 05:18:12;;;;;;;0.68;0.60;;;;;;;11.88;37.29;101331.81;4936148;29;20466;-78
2022/01/27 05:20:39;;;;;;;2.00;1.43;;;;;;;11.90;37.41;101340.78;4948875;29;20107;-74
2022/01/27 05:23:07;;;;;;;2.20;0.93;;;;;;;11.83;37.22;101340.16;4931666;29;20048;-74
2022/01/27 05:25:34;;;;;;;3.13;0.87;;;;;;;11.77;37.35;101341.22;4923338;29;20059;-77
2022/01/27 05:28:01;;;;;;;2.83;1.57;;;;;;;11.67;37.50;101341.16;4933498;29;20142;-76
2022/01/27 05:30:28;;;;;;;1.40;1.13;;;;;;;11.55;37.41;101328.19;4932146;29;20471;-75
2022/01/27 05:32:55;;;;;;;3.33;1.10;;;;;;;11.66;37.42;101350.66;4931367;29;20135;-74
2022/01/27 05:35:21;;;;;;;1.90;1.63;;;;;;;11.62;37.69;101334.41;4933917;29;20048;-76
2022/01/27 05:37:48;;;;;;;1.43;1.00;;;;;;;11.58;37.61;101338.00;4932068;29;20079;-76
2022/01/27 05:40:15;;;;;;;2.43;1.27;;;;;;;11.64;37.59;101348.13;4938108;29;20491;-74
2022/01/27 05:42:44;;;;;;;0.47;0.40;;;;;;;11.68;37.58;101343.69;4940469;29;20139;-75
2022/01/27 05:45:11;;;;;;;2.43;0.93;;;;;;;11.63;37.45;101341.69;4945231;29;20071;-75
2022/01/27 05:47:38;;;;;;;2.10;1.40;;;;;;;11.62;37.18;101322.38;4943866;29;20082;-75
2022/01/27 05:50:06;;;;;;;1.50;1.00;;;;;;;11.75;37.31;101332.25;4945428;29;20048;-74
2022/01/27 05:52:32;;;;;;;2.67;0.90;;;;;;;11.78;37.21;101345.72;4945080;29;20054;-71
2022/01/27 05:54:59;;;;;;;0.70;0.60;;;;;;;11.75;37.42;101337.84;4944694;29;20099;-73
2022/01/27 05:57:26;;;;;;;2.07;0.83;;;;;;;11.70;37.57;101335.03;4944842;29;20059;-72
2022/01/27 05:59:54;;;;;;;1.50;1.30;;;;;;;11.65;37.50;101346.16;4943942;29;20051;-73
2022/01/27 06:02:21;;;;;;;1.87;0.90;;;;;;;11.41;37.70;101315.78;4945745;29;20136;-72
2022/01/27 06:04:48;;;;;;;2.10;1.40;;;;;;;11.28;37.80;101285.47;4955149;29;20059;-72
2022/01/27 06:07:15;;;;;;;1.73;0.97;;;;;;;11.66;37.68;101353.44;4952187;29;20055;-81
2022/01/27 06:09:42;;;;;;;0.40;0.40;;;;;;;11.57;37.89;101342.75;4949345;29;20052;-81
2022/01/27 06:12:09;;;;;;;3.07;2.03;;;;;;;11.50;38.15;101344.94;4931294;29;20080;-73
2022/01/27 06:14:36;;;;;;;3.37;1.80;;;;;;;11.53;38.08;101347.22;4942158;29;20064;-79
2022/01/27 06:17:03;;;;;;;2.57;1.57;;;;;;;11.44;38.47;101343.22;4954388;29;20070;-77
2022/01/27 06:19:30;;;;;;;1.87;1.53;;;;;;;11.36;38.83;101368.88;4941882;29;20056;-76
2022/01/27 06:21:57;;;;;;;4.33;2.10;;;;;;;11.35;39.04;101367.16;4943725;29;20063;-76
2022/01/27 06:24:24;;;;;;;6.83;2.03;;;;;;;11.57;38.46;101358.72;4945813;29;20055;-74
2022/01/27 06:26:51;;;;;;;3.43;1.50;;;;;;;11.53;38.48;101368.75;4933534;29;20052;-76
2022/01/27 06:29:17;;;;;;;1.53;1.43;;;;;;;11.57;38.75;101376.31;4938526;29;20083;-78
2022/01/27 06:31:46;;;;;;;4.20;2.27;;;;;;;11.66;38.65;101367.44;4941520;29;20079;-75
2022/01/27 06:34:13;;;;;;;3.10;1.80;;;;;;;11.72;38.59;101377.56;4944499;29;20063;-76
2022/01/27 06:36:40;;;;;;;2.60;1.53;;;;;;;11.77;38.40;101386.84;4953962;29;20055;-77
2022/01/27 06:39:07;;;;;;;2.37;1.30;;;;;;;11.47;38.35;101322.25;4953359;29;20078;-76
2022/01/27 06:41:34;;;;;;;3.87;2.20;;;;;;;11.97;38.23;101400.19;4954646;29;20063;-76
2022/01/27 06:44:02;;;;;;;2.77;1.20;;;;;;;12.04;38.02;101403.59;4939806;29;20079;-73
2022/01/27 06:46:29;;;;;;;4.07;2.53;;;;;;;11.67;38.25;101357.94;4927095;29;20111;-72
2022/01/27 06:48:56;;;;;;;0.50;0.50;;;;;;;11.71;38.59;101381.47;4927050;28;20052;-70
2022/01/27 06:51:23;;;;;;;6.30;1.90;;;;;;;11.66;38.68;101381.41;4929438;29;20056;-72
2022/01/27 06:53:51;;;;;;;4.83;1.47;;;;;;;11.46;38.97;101377.38;4923392;29;20417;-69
2022/01/27 06:56:18;;;;;;;6.97;1.77;;;;;;;11.74;38.50;101394.94;4929143;29;20052;-70
2022/01/27 06:58:45;;;;;;;4.30;2.10;;;;;;;11.75;38.36;101405.00;4930172;29;20423;-70
2022/01/27 07:01:12;;;;;;;8.03;2.27;;;;;;;11.64;38.41;101370.50;4922863;29;20519;-70
2022/01/27 07:03:39;;;;;;;4.47;2.37;;;;;;;11.97;38.26;101419.78;4923760;29;20134;-70
2022/01/27 07:06:06;;;;;;;3.60;2.10;;;;;;;12.10;38.05;101424.03;4928808;29;20601;-72
2022/01/27 07:08:33;;;;;;;3.17;2.30;;;;;;;12.03;37.99;101418.69;4921498;29;20083;-75
2022/01/27 07:11:00;;;;;;;0.83;0.83;;;;;;;11.87;38.29;101441.25;4926222;29;20582;-68
2022/01/27 07:13:27;;;;;;;2.93;1.67;;;;;;;11.75;38.06;101388.22;4929182;29;20052;-68
2022/01/27 07:15:55;;;;;;;3.80;1.80;;;;;;;12.01;38.07;101426.50;4963134;28;20550;-69
2022/01/27 07:18:23;;;;;;;2.47;1.60;;;;;;;12.09;37.86;101422.38;4925084;29;20055;-68
2022/01/27 07:20:50;;;;;;;7.17;1.80;;;;;;;11.87;37.71;101390.88;4930139;29;20469;-68
2022/01/27 07:23:17;;;;;;;4.43;1.80;;;;;;;12.16;37.76;101433.31;4923852;29;20058;-68
2022/01/27 07:25:44;;;;;;;9.90;2.53;;;;;;;12.03;37.88;101435.50;4933200;29;20150;-68
2022/01/27 07:28:11;;;;;;;3.60;1.70;;;;;;;11.91;37.79;101417.19;4923578;29;20493;-68
2022/01/27 07:30:37;;;;;;;4.30;2.33;;;;;;;11.84;38.14;101425.81;4921316;29;20114;-67
2022/01/27 07:33:04;;;;;;;3.80;1.40;;;;;;;11.65;38.34;101436.53;4921386;29;20077;-68
2022/01/27 07:35:32;;;;;;;3.00;1.30;;;;;;;11.60;38.39;101416.91;4950120;28;20063;-68
2022/01/27 07:37:58;;;;;;;2.33;1.57;;;;;;;11.56;38.51;101433.41;4920646;29;20051;-69
2022/01/27 07:40:25;;;;;;;7.73;2.00;;;;;;;11.57;38.47;101414.66;4924805;29;20475;-69
2022/01/27 07:43:12;;;;;;;2.30;1.17;;;;;;;11.63;38.29;101414.44;4925212;29;20048;-68
2022/01/27 07:45:39;;;;;;;6.33;2.50;;;;;;;11.77;38.31;101430.78;4917369;29;20590;-68
2022/01/27 07:48:06;;;;;;;4.60;2.03;;;;;;;11.69;38.09;101408.88;4924456;29;20684;-68
2022/01/27 07:50:33;;;;;;;3.73;2.30;;;;;;;11.94;38.01;101439.91;4917335;29;20961;-68
2022/01/27 07:53:00;;;;;;;2.37;1.17;;;;;;;11.70;38.02;101386.22;4920960;29;20157;-69
2022/01/27 07:55:27;;;;;;;3.00;2.10;;;;;;;12.02;38.00;101433.78;4920010;29;20055;-67
2022/01/27 07:57:54;;;;;;;3.10;1.83;;;;;;;11.99;37.87;101439.94;4951988;28;20063;-68
2022/01/27 08:00:21;;;;;;;2.47;1.03;;;;;;;11.96;38.12;101432.06;4928606;29;20131;-68
2022/01/27 08:02:48;;;;;;;3.53;2.10;;;;;;;12.01;38.18;101437.72;4924779;29;20598;-67
2022/01/27 08:05:15;;;;;;;0.90;0.60;;;;;;;11.89;38.10;101445.44;4930226;29;20056;-67
2022/01/27 08:07:42;;;;;;;3.50;1.90;;;;;;;11.92;38.26;101433.72;4920234;29;20138;-68
2022/01/27 08:10:09;;;;;;;4.67;1.70;;;;;;;11.88;38.18;101438.16;4929158;29;20091;-68
2022/01/27 08:12:41;;;;;;;4.10;1.67;;;;;;;11.77;38.33;101414.00;4922020;29;20074;-67
2022/01/27 08:15:09;;;;;;;8.17;2.00;;;;;;;12.03;37.85;101435.50;4948703;28;20059;-68
2022/01/27 08:17:36;;;;;;;6.33;1.47;;;;;;;12.28;37.94;101447.97;4920298;29;20454;-68
2022/01/27 08:20:03;;;;;;;3.13;1.80;;;;;;;12.39;37.61;101449.72;4918888;29;20143;-68
2022/01/27 08:22:31;;;;;;;12.03;2.20;;;;;;;12.30;37.42;101398.13;4927943;29;20143;-68
2022/01/27 08:24:58;;;;;;;9.77;1.83;;;;;;;12.66;37.35;101443.16;4925560;29;20052;-68
2022/01/27 08:27:29;;;;;;;4.27;2.23;;;;;;;12.98;37.09;101471.88;4930346;29;20097;-68
2022/01/27 08:30:02;;;;;;;7.63;2.20;;;;;;;12.92;36.86;101447.75;4921472;29;20056;-68
2022/01/27 08:32:58;;;;;;;4.33;2.13;;;;;;;12.49;36.72;101370.50;4927242;29;20052;-68
2022/01/27 08:35:20;;;;;;;6.53;2.13;;;;;;;13.33;36.55;101489.97;4929953;29;20161;-68
2022/01/27 08:37:47;;;;;;;7.78;3.65;;;;;;;13.61;36.25;101487.81;4932363;29;20153;-68
2022/01/27 08:40:15;;;;;;;23.23;9.27;;;;;;;14.02;36.08;101488.69;4930275;29;20087;-68
2022/01/27 08:43:04;;;;;;;8.63;3.50;;;;;;;14.51;35.77;101495.69;4934182;29;20410;-68
2022/01/27 08:45:30;;;;;;;7.27;3.40;;;;;;;14.81;35.59;101512.47;4929248;29;20138;-68
2022/01/27 08:47:59;;;;;;;12.90;4.20;;;;;;;14.96;35.46;101514.38;4935302;29;20142;-68
2022/01/27 08:50:27;;;;;;;9.07;4.80;;;;;;;15.09;35.56;101515.75;4952288;28;20107;-68
2022/01/27 08:52:54;;;;;;;8.10;4.10;;;;;;;15.30;35.11;101514.50;4961204;28;20451;-69
2022/01/27 08:55:21;;;;;;;7.40;4.03;;;;;;;15.53;35.14;101517.78;4924273;29;20086;-68
2022/01/27 08:57:50;;;;;;;8.50;3.93;;;;;;;15.86;34.88;101522.66;4936528;29;20058;-69
2022/01/27 09:00:20;;;;;;;7.57;3.37;;;;;;;16.01;34.69;101498.34;4930827;29;20099;-68
2022/01/27 09:03:07;;;;;;;15.57;7.27;;;;;;;16.51;34.63;101524.34;4934337;29;20503;-67
2022/01/27 09:05:35;;;;;;;8.63;3.70;;;;;;;16.90;34.31;101524.28;4928016;29;20134;-68
2022/01/27 09:08:01;;;;;;;4.93;2.90;;;;;;;17.26;33.67;101516.22;4930552;29;20134;-69
2022/01/27 09:10:32;;;;;;;8.43;3.63;;;;;;;17.54;33.21;101507.94;4958220;28;20052;-69
2022/01/27 09:13:00;;;;;;;6.13;3.60;;;;;;;17.57;32.94;101481.88;4925398;29;20048;-69
2022/01/27 09:15:27;;;;;;;6.38;3.40;;;;;;;18.01;32.39;101520.22;4928292;29;20043;-67
2022/01/27 09:17:56;;;;;;;5.10;3.22;;;;;;;17.99;32.46;101522.53;4934338;29;20430;-68
2022/01/27 09:20:24;;;;;;;8.05;3.42;;;;;;;18.00;32.42;101508.09;4923749;29;20043;-68
2022/01/27 09:22:53;;;;;;;7.72;3.30;;;;;;;17.94;32.32;101483.88;4920899;29;20052;-68
2022/01/27 09:25:24;;;;;;;6.35;3.90;;;;;;;17.89;32.65;101523.53;4920009;29;20475;-68
2022/01/27 09:27:52;;;;;;;15.55;6.05;;;;;;;17.49;32.90;101530.56;4920616;29;20130;-67
2022/01/27 09:30:19;;;;;;;10.02;4.15;;;;;;;17.27;33.28;101537.66;4918817;29;20151;-68
2022/01/27 09:32:46;;;;;;;9.85;3.53;;;;;;;17.08;33.33;101525.47;4919414;29;20427;-68
2022/01/27 09:35:15;;;;;;;9.43;4.00;;;;;;;17.00;33.08;101523.31;4919051;29;20064;-68
2022/01/27 09:37:42;;;;;;;10.60;3.50;;;;;;;17.23;32.68;101528.09;4917940;29;20154;-68
2022/01/27 09:40:11;;;;;;;4.28;2.97;;;;;;;17.62;32.57;101512.88;4918385;29;20052;-67
2022/01/27 09:42:38;;;;;;;13.20;4.10;;;;;;;17.82;31.71;101527.88;4918142;29;20499;-68
2022/01/27 09:45:08;;;;;;;7.57;3.03;;;;;;;17.85;31.35;101518.81;4921096;29;20055;-67
2022/01/27 09:47:40;;;;;;;8.40;2.33;;;;;;;18.22;31.20;101532.03;4916633;29;20518;-68
2022/01/27 09:50:25;;;;;;;5.13;2.97;;;;;;;18.47;30.27;101523.13;4918211;29;20055;-68
2022/01/27 09:52:52;;;;;;;7.90;3.10;;;;;;;18.88;29.95;101521.53;4921092;29;20047;-68
2022/01/27 09:55:21;;;;;;;3.22;2.10;;;;;;;19.46;29.69;101529.38;4917553;29;20055;-68
2022/01/27 09:57:51;;;;;;;7.65;2.58;;;;;;;19.41;28.97;101518.16;4917295;29;20787;-68
2022/01/27 10:00:20;;;;;;;8.45;2.60;;;;;;;19.88;28.89;101536.66;4946109;28;20052;-69
2022/01/27 10:03:08;;;;;;;5.60;2.20;;;;;;;20.34;28.71;101535.53;4919212;29;20597;-69
2022/01/27 10:05:36;;;;;;;10.98;3.13;;;;;;;20.87;28.36;101533.03;4919053;29;20059;-68
2022/01/27 10:08:10;;;;;;;9.82;3.35;;;;;;;20.76;27.68;101523.97;4917964;29;20047;-68
2022/01/27 10:10:46;;;;;;;3.83;2.15;;;;;;;20.88;27.62;101538.38;4917219;29;20522;-68
2022/01/27 10:13:36;;;;;;;4.28;2.30;;;;;;;20.93;27.65;101515.53;4915841;29;20063;-68
2022/01/27 10:16:04;;;;;;;8.65;3.30;;;;;;;21.38;27.67;101511.69;4917065;29;20146;-67
2022/01/27 10:18:35;;;;;;;7.05;3.05;;;;;;;22.08;27.20;101538.19;4919112;29;20059;-69
2022/01/27 10:21:06;;;;;;;11.30;2.90;;;;;;;22.27;26.61;101498.88;4917359;29;20055;-68
2022/01/27 10:23:37;;;;;;;3.75;2.53;;;;;;;22.56;26.79;101525.78;4919865;29;20048;-67
2022/01/27 10:26:19;;;;;;;4.07;2.22;;;;;;;22.60;26.61;101524.78;4918336;29;20190;-68
2022/01/27 10:29:14;;;;;;;8.18;2.92;;;;;;;22.77;26.36;101505.94;4917687;29;20651;-68
2022/01/27 10:31:38;;;;;;;3.50;2.10;;;;;;;22.82;26.25;101537.09;4919196;29;20139;-67
2022/01/27 10:34:07;;;;;;;5.88;3.03;;;;;;;22.05;25.49;101524.63;4917599;29;20048;-68
2022/01/27 10:36:40;;;;;;;6.32;2.90;;;;;;;21.99;25.92;101538.19;4913447;29;20065;-68
2022/01/27 10:39:15;;;;;;;10.32;3.33;;;;;;;21.77;25.60;101536.34;4915607;29;20130;-68
2022/01/27 10:42:00;;;;;;;2.63;2.08;;;;;;;21.44;25.95;101528.25;4917751;29;20551;-69
2022/01/27 10:44:43;;;;;;;4.15;1.90;;;;;;;21.10;25.82;101528.97;4913708;29;20942;-68
2022/01/27 10:47:21;;;;;;;3.75;2.47;;;;;;;20.76;25.99;101512.63;4915956;29;20087;-70
2022/01/27 10:49:58;;;;;;;4.05;2.10;;;;;;;20.92;26.15;101536.59;4916800;29;20091;-68
2022/01/27 10:55:08;;;;;;;1.40;1.30;;;;;;;20.57;26.21;101527.84;4929692;29;20091;-69
2022/01/27 10:57:35;;;;;;;5.78;3.35;;;;;;;20.71;26.32;101538.28;4931045;29;20091;-67
2022/01/27 11:00:14;;;;;;;3.05;2.38;;;;;;;20.56;26.21;101537.53;4925499;29;20143;-68
2022/01/27 11:02:58;;;;;;;6.60;1.77;;;;;;;20.75;26.31;101534.50;4924159;29;20151;-68
2022/01/27 11:05:30;;;;;;;5.32;3.05;;;;;;;20.31;26.26;101484.28;4927569;29;20126;-68
2022/01/27 11:07:59;;;;;;;6.05;3.67;;;;;;;21.10;26.21;101550.84;4924082;29;20427;-67
2022/01/27 11:10:27;;;;;;;6.50;3.25;;;;;;;21.68;25.93;101521.28;4928735;29;20090;-68
2022/01/27 11:12:56;;;;;;;5.68;2.70;;;;;;;22.18;25.24;101526.50;4931934;29;20138;-67
2022/01/27 11:15:23;;;;;;;6.72;3.85;;;;;;;22.46;25.13;101555.41;4920173;29;20151;-68
2022/01/27 11:17:51;;;;;;;5.07;2.92;;;;;;;22.91;25.15;101555.00;4918917;29;20134;-69
2022/01/27 11:26:20;;;;;;;8.40;4.53;;;;;;;23.07;24.43;101504.00;4918497;29;20059;-68
2022/01/27 11:28:49;;;;;;;7.15;3.97;;;;;;;23.57;24.28;101526.03;4956938;28;20154;-67
2022/01/27 11:31:33;;;;;;;7.97;3.88;;;;;;;23.97;24.04;101526.44;4921788;29;20051;-68
2022/01/27 11:34:07;;;;;;;5.82;3.60;;;;;;;24.02;23.98;101525.41;4920359;29;20043;-68
2022/01/27 11:36:34;;;;;;;4.60;3.35;;;;;;;24.16;23.50;101530.81;4920829;29;20059;-69
2022/01/27 11:39:02;;;;;;;8.88;4.22;;;;;;;24.68;23.70;101522.56;4918836;29;20055;-67
2022/01/27 11:41:45;;;;;;;5.57;4.00;;;;;;;25.08;23.15;101519.06;4921130;29;20043;-68
2022/01/27 11:44:32;;;;;;;8.13;3.60;;;;;;;25.65;22.81;101520.16;4921538;29;20687;-68
2022/01/27 11:47:09;;;;;;;6.13;3.75;;;;;;;26.34;22.65;101512.47;4915651;29;20066;-68
2022/01/27 11:49:55;;;;;;;10.73;4.13;;;;;;;26.73;22.37;101502.09;4918568;29;20143;-69
2022/01/27 11:52:48;;;;;;;9.10;3.70;;;;;;;26.90;22.22;101503.78;4917467;29;20422;-69
2022/01/27 11:55:24;;;;;;;14.48;5.05;;;;;;;27.18;21.69;101506.59;4917451;29;20059;-68
2022/01/27 11:57:58;;;;;;;6.50;3.90;;;;;;;27.47;21.37;101513.03;4919273;29;20051;-68
2022/01/27 12:00:28;;;;;;;11.25;4.10;;;;;;;26.87;20.82;101501.66;4920670;29;20051;-68
2022/01/27 12:03:00;;;;;;;7.65;4.00;;;;;;;26.76;20.82;101501.38;4918935;29;20115;-68
2022/01/27 12:05:33;;;;;;;4.22;3.50;;;;;;;27.08;20.56;101490.75;4923176;29;20052;-69
2022/01/27 12:08:12;;;;;;;7.35;4.45;;;;;;;26.98;20.31;101497.06;4920924;29;20150;-68
2022/01/27 12:10:45;;;;;;;6.10;3.08;;;;;;;27.13;20.15;101495.41;4925420;29;20138;-69
2022/01/27 12:13:25;;;;;;;3.88;2.70;;;;;;;26.53;19.83;101488.88;4923505;29;20051;-69
2022/01/27 12:16:57;;;;;;;7.35;3.95;;;;;;;26.21;20.17;101481.00;4920308;29;20110;-68
2022/01/27 12:19:11;;;;;;;9.32;4.25;;;;;;;26.65;19.88;101478.16;4921659;29;20138;-69
2022/01/27 12:21:56;;;;;;;7.97;5.55;;;;;;;26.92;19.67;101459.22;4917462;29;20055;-69
2022/01/27 12:24:28;;;;;;;6.65;3.92;;;;;;;27.37;19.07;101457.06;4918556;29;20058;-69
2022/01/27 12:26:59;;;;;;;4.03;2.83;;;;;;;27.40;18.64;101448.53;4924219;29;20073;-69